createdAt,value
2017-10-05T00:00:32.141Z,2.50
2017-10-05T00:02:59.888Z,3.00
2017-10-05T00:05:27.623Z,2.67
2017-10-05T00:07:55.282Z,2.30
2017-10-05T00:10:23.031Z,3.63
2017-10-05T00:12:50.747Z,2.70
2017-10-05T00:15:18.391Z,2.33
2017-10-05T00:17:46.068Z,2.33
2017-10-05T00:20:13.831Z,3.00
2017-10-05T00:22:41.535Z,3.07
2017-10-05T00:25:09.195Z,2.87
2017-10-05T00:27:36.954Z,2.80
2017-10-05T00:30:04.702Z,2.90
2017-10-05T00:32:32.376Z,3.80
2017-10-05T00:35:00.551Z,2.83
2017-10-05T00:37:28.205Z,3.40
2017-10-05T00:39:55.859Z,3.07
2017-10-05T00:42:23.573Z,3.70
2017-10-05T00:44:51.699Z,3.23
2017-10-05T00:47:19.446Z,3.13
2017-10-05T00:49:47.295Z,2.47
2017-10-05T00:52:15.042Z,2.67
2017-10-05T00:54:42.731Z,3.70
2017-10-05T00:57:10.742Z,3.87
2017-10-05T00:59:38.464Z,2.40
2017-10-05T01:02:06.133Z,3.50
2017-10-05T01:04:33.960Z,3.10
2017-10-05T01:07:01.643Z,3.83
2017-10-05T01:09:29.326Z,3.83
2017-10-05T01:11:57.123Z,3.20
2017-10-05T01:14:24.873Z,3.40
2017-10-05T01:16:52.619Z,3.90
2017-10-05T01:19:20.470Z,3.20
2017-10-05T01:21:48.318Z,3.80
2017-10-05T01:24:16.043Z,3.33
2017-10-05T01:26:43.787Z,3.50
2017-10-05T01:29:11.457Z,3.60
2017-10-05T01:31:39.204Z,3.17
2017-10-05T01:34:07.023Z,3.60
2017-10-05T01:36:34.801Z,3.73
2017-10-05T01:39:02.548Z,4.93
2017-10-05T01:41:30.398Z,4.53
2017-10-05T01:43:58.145Z,4.43
2017-10-05T01:46:25.997Z,3.63
2017-10-05T01:48:53.683Z,3.67
2017-10-05T01:51:21.492Z,4.10
2017-10-05T01:53:49.239Z,4.43
2017-10-05T01:56:16.939Z,4.07
2017-10-05T01:58:44.581Z,4.07
2017-10-05T02:01:12.378Z,4.53
2017-10-05T02:03:40.125Z,4.30
2017-10-05T02:06:07.873Z,3.27
2017-10-05T02:08:35.620Z,4.20
2017-10-05T02:11:03.359Z,4.23
2017-10-05T02:13:31.017Z,4.33
2017-10-05T02:15:58.758Z,4.10
2017-10-05T02:18:26.823Z,4.40
2017-10-05T02:20:54.563Z,4.10
2017-10-05T02:23:22.311Z,3.97
2017-10-05T02:25:50.058Z,4.20
2017-10-05T02:28:17.805Z,4.13
2017-10-05T02:30:45.551Z,3.77
2017-10-05T02:33:13.401Z,4.03
2017-10-05T02:35:41.148Z,4.10
2017-10-05T02:38:08.895Z,4.07
2017-10-05T02:40:36.603Z,3.70
2017-10-05T02:43:04.287Z,4.17
2017-10-05T02:45:31.947Z,3.90
2017-10-05T02:47:59.679Z,4.03
2017-10-05T02:50:27.371Z,3.37
2017-10-05T02:52:55.075Z,3.70
2017-10-05T02:55:22.822Z,4.47
2017-10-05T02:57:50.571Z,3.67
2017-10-05T03:00:18.287Z,3.27
2017-10-05T03:02:46.003Z,3.70
2017-10-05T03:05:13.651Z,4.07
2017-10-05T03:07:41.352Z,3.30
2017-10-05T03:10:09.048Z,3.77
2017-10-05T03:12:36.703Z,4.10
2017-10-05T03:15:04.345Z,3.60
2017-10-05T03:17:32.091Z,3.47
2017-10-05T03:19:59.741Z,3.60
2017-10-05T03:22:27.398Z,3.90
2017-10-05T03:24:55.090Z,4.10
2017-10-05T03:27:22.821Z,3.00
2017-10-05T03:29:50.568Z,2.33
2017-10-05T03:32:18.271Z,3.97
2017-10-05T03:34:45.958Z,3.93
2017-10-05T03:37:13.707Z,4.23
2017-10-05T03:39:41.412Z,4.17
2017-10-05T03:42:09.068Z,3.70
2017-10-05T03:44:36.719Z,2.90
2017-10-05T03:47:04.490Z,4.30
2017-10-05T03:49:32.238Z,3.60
2017-10-05T03:51:59.985Z,3.17
2017-10-05T03:54:27.792Z,3.43
2017-10-05T03:56:55.506Z,3.83
2017-10-05T03:59:23.639Z,3.07
2017-10-05T04:01:51.590Z,3.43
2017-10-05T04:04:19.271Z,3.73
2017-10-05T04:06:47.371Z,3.57
2017-10-05T04:09:15.122Z,3.10
2017-10-05T04:11:42.811Z,2.73
2017-10-05T04:14:10.852Z,3.07
2017-10-05T04:16:38.689Z,3.00
2017-10-05T04:19:06.436Z,3.20
2017-10-05T04:21:34.087Z,2.77
2017-10-05T04:24:01.930Z,2.85
2017-10-05T04:26:29.677Z,2.20
2017-10-05T04:28:57.425Z,2.80
2017-10-05T04:31:25.276Z,3.07
2017-10-05T04:33:52.922Z,2.83
2017-10-05T04:36:20.668Z,2.60
2017-10-05T04:38:48.417Z,2.50
2017-10-05T04:41:16.162Z,2.10
2017-10-05T04:43:43.819Z,2.10
2017-10-05T04:46:11.562Z,2.27
2017-10-05T04:48:39.212Z,2.50
2017-10-05T04:51:06.863Z,2.30
2017-10-05T04:53:34.693Z,2.00
2017-10-05T04:56:02.414Z,2.33
2017-10-05T04:58:30.083Z,2.20
2017-10-05T05:00:57.831Z,1.90
2017-10-05T05:03:25.488Z,2.13
2017-10-05T05:05:53.130Z,2.30
2017-10-05T05:08:20.826Z,2.05
2017-10-05T05:10:48.474Z,2.07
2017-10-05T05:13:16.122Z,1.97
2017-10-05T05:15:43.815Z,2.13
2017-10-05T05:18:11.468Z,2.20
2017-10-05T05:20:39.609Z,1.97
2017-10-05T05:23:07.442Z,2.92
2017-10-05T05:25:35.087Z,2.20
2017-10-05T05:28:02.850Z,2.17
2017-10-05T05:30:30.596Z,1.93
2017-10-05T05:32:58.255Z,1.97
2017-10-05T05:35:25.931Z,2.30
2017-10-05T05:37:53.840Z,2.30
2017-10-05T05:40:21.764Z,2.10
2017-10-05T05:42:49.451Z,1.93
2017-10-05T05:45:17.227Z,1.77
2017-10-05T05:47:44.895Z,2.40
2017-10-05T05:50:12.679Z,2.33
2017-10-05T05:52:40.426Z,3.12
2017-10-05T05:55:08.101Z,2.25
2017-10-05T05:57:36.154Z,2.20
2017-10-05T06:00:04.331Z,2.23
2017-10-05T06:02:32.071Z,1.70
2017-10-05T06:04:59.784Z,1.93
2017-10-05T06:07:27.589Z,1.60
2017-10-05T06:09:55.377Z,2.00
2017-10-05T06:12:23.068Z,2.17
2017-10-05T06:14:50.809Z,2.30
2017-10-05T06:17:18.927Z,2.40
2017-10-05T06:19:46.586Z,2.17
2017-10-05T06:22:14.350Z,2.40
2017-10-05T06:24:42.474Z,3.10
2017-10-05T06:27:10.147Z,3.13
2017-10-05T06:29:38.266Z,2.90
2017-10-05T06:32:05.919Z,2.73
2017-10-05T06:34:33.592Z,2.43
2017-10-05T06:37:01.695Z,2.10
2017-10-05T06:39:29.366Z,2.20
2017-10-05T06:41:57.046Z,1.90
2017-10-05T06:44:25.158Z,1.80
2017-10-05T06:46:52.815Z,2.00
2017-10-05T06:49:20.515Z,1.83
2017-10-05T06:51:48.310Z,2.40
2017-10-05T06:54:15.963Z,2.20
2017-10-05T06:56:43.667Z,1.67
2017-10-05T06:59:11.366Z,2.30
2017-10-05T07:01:39.019Z,1.83
2017-10-05T07:04:07.071Z,1.83
2017-10-05T07:06:35.180Z,2.00
2017-10-05T07:09:02.950Z,1.63
2017-10-05T07:11:30.604Z,1.53
2017-10-05T07:13:58.341Z,1.47
2017-10-05T07:16:26.089Z,1.37
2017-10-05T07:18:53.839Z,1.57
2017-10-05T07:21:21.619Z,1.80
2017-10-05T07:23:49.743Z,1.63
2017-10-05T07:26:17.387Z,1.40
2017-10-05T07:28:45.112Z,1.40
2017-10-05T07:31:12.785Z,1.37
2017-10-05T07:33:40.452Z,1.83
2017-10-05T07:36:08.560Z,3.10
2017-10-05T07:38:36.208Z,2.83
2017-10-05T07:41:03.871Z,3.33
2017-10-05T07:43:31.575Z,1.80
2017-10-05T07:45:59.365Z,2.50
2017-10-05T07:48:27.011Z,1.53
2017-10-05T07:50:54.713Z,1.53
2017-10-05T07:53:22.363Z,1.70
2017-10-05T07:55:50.016Z,1.40
2017-10-05T07:58:17.808Z,1.87
2017-10-05T08:00:45.466Z,1.93
2017-10-05T08:03:13.555Z,1.77
2017-10-05T08:05:41.365Z,2.43
2017-10-05T08:08:09.411Z,1.43
2017-10-05T08:10:37.060Z,1.67
2017-10-05T08:13:04.893Z,2.10
2017-10-05T08:15:32.547Z,1.13
2017-10-05T08:18:00.200Z,1.40
2017-10-05T08:20:28.004Z,1.60
2017-10-05T08:22:55.657Z,1.27
2017-10-05T08:25:23.302Z,1.73
2017-10-05T08:27:51.073Z,1.30
2017-10-05T08:30:18.727Z,1.27
2017-10-05T08:32:46.380Z,1.13
2017-10-05T08:35:14.108Z,1.50
2017-10-05T08:37:41.761Z,1.40
2017-10-05T08:40:09.415Z,1.20
2017-10-05T08:42:37.167Z,1.23
2017-10-05T08:45:04.884Z,1.10
2017-10-05T08:47:32.536Z,1.23
2017-10-05T08:50:00.271Z,1.23
2017-10-05T08:52:28.032Z,1.53
2017-10-05T08:54:55.686Z,1.20
2017-10-05T08:57:23.623Z,1.10
2017-10-05T08:59:51.275Z,1.13
2017-10-05T09:02:18.942Z,2.77
2017-10-05T09:04:47.155Z,1.90
2017-10-05T09:07:14.807Z,1.27
2017-10-05T09:09:42.465Z,1.30
2017-10-05T09:12:10.174Z,1.10
2017-10-05T09:14:37.818Z,2.40
2017-10-05T09:17:05.504Z,1.80
2017-10-05T09:19:33.256Z,2.00
2017-10-05T09:22:00.911Z,1.73
2017-10-05T09:24:28.651Z,1.87
2017-10-05T09:26:56.493Z,1.60
2017-10-05T09:29:24.245Z,1.67
2017-10-05T09:31:51.902Z,3.40
2017-10-05T09:34:19.595Z,1.57
2017-10-05T09:36:47.247Z,1.73
2017-10-05T09:39:14.891Z,2.13
2017-10-05T09:41:42.673Z,2.23
2017-10-05T09:44:10.314Z,0.90
2017-10-05T09:46:38.774Z,1.60
2017-10-05T09:49:06.473Z,1.90
2017-10-05T09:51:34.173Z,2.10
2017-10-05T09:54:01.926Z,1.70
2017-10-05T09:56:29.668Z,4.30
2017-10-05T09:58:57.321Z,1.53
2017-10-05T10:01:24.968Z,1.00
2017-10-05T10:03:52.663Z,1.50
2017-10-05T10:06:20.421Z,1.20
2017-10-05T10:08:48.070Z,1.10
2017-10-05T10:11:15.848Z,1.20
2017-10-05T10:13:43.536Z,1.20
2017-10-05T10:16:11.178Z,1.67
2017-10-05T10:18:39.271Z,1.40
2017-10-05T10:21:06.918Z,1.43
2017-10-05T10:23:34.583Z,0.90
2017-10-05T10:26:02.288Z,1.00
2017-10-05T10:28:31.176Z,2.00
2017-10-05T10:30:58.822Z,1.63
2017-10-05T10:33:26.611Z,1.47
2017-10-05T10:35:54.345Z,1.50
2017-10-05T10:38:22.094Z,2.07
2017-10-05T10:40:49.787Z,1.13
2017-10-05T10:43:17.587Z,1.23
2017-10-05T10:45:45.243Z,1.50
2017-10-05T10:48:13.279Z,1.07
2017-10-05T10:50:41.033Z,1.03
2017-10-05T10:53:08.680Z,1.83
2017-10-05T10:55:36.475Z,1.20
2017-10-05T10:58:04.127Z,1.00
2017-10-05T11:00:31.792Z,1.07
2017-10-05T11:02:59.759Z,1.30
2017-10-05T11:05:27.404Z,1.63
2017-10-05T11:07:55.053Z,1.63
2017-10-05T11:10:22.755Z,1.07
2017-10-05T11:12:50.408Z,3.17
2017-10-05T11:15:18.062Z,2.77
2017-10-05T11:17:45.845Z,1.50
2017-10-05T11:20:13.592Z,1.00
2017-10-05T11:22:41.339Z,1.20
2017-10-05T11:25:09.038Z,1.30
2017-10-05T11:27:36.683Z,1.20
2017-10-05T11:30:04.331Z,1.33
2017-10-05T11:32:32.038Z,1.73
2017-10-05T11:34:59.768Z,1.20
2017-10-05T11:37:27.431Z,1.40
2017-10-05T11:39:55.128Z,1.27
2017-10-05T11:42:22.807Z,1.53
2017-10-05T11:44:50.448Z,1.30
2017-10-05T11:47:18.166Z,1.30
2017-10-05T11:49:45.807Z,1.17
2017-10-05T11:52:13.452Z,1.60
2017-10-05T11:54:41.235Z,1.33
2017-10-05T11:57:08.891Z,2.30
2017-10-05T11:59:36.540Z,1.20
2017-10-05T12:02:04.354Z,1.33
2017-10-05T12:04:32.015Z,1.30
2017-10-05T12:06:59.660Z,2.77
2017-10-05T12:09:27.371Z,1.20
2017-10-05T12:11:55.015Z,1.50
2017-10-05T12:14:22.704Z,1.30
2017-10-05T12:16:50.395Z,1.20
2017-10-05T12:19:18.045Z,1.23
2017-10-05T12:21:45.691Z,0.90
2017-10-05T12:24:13.470Z,1.70
2017-10-05T12:26:41.115Z,1.30
2017-10-05T12:29:08.776Z,1.27
2017-10-05T12:31:36.475Z,1.67
2017-10-05T12:34:04.170Z,2.40
2017-10-05T12:36:31.815Z,1.50
2017-10-05T12:38:59.516Z,3.00
2017-10-05T12:41:27.167Z,1.70
2017-10-05T12:43:54.818Z,1.30
2017-10-05T12:46:22.530Z,1.30
2017-10-05T12:48:50.655Z,1.27
2017-10-05T12:51:18.302Z,1.20
2017-10-05T12:53:46.035Z,1.50
2017-10-05T12:56:13.686Z,1.00
2017-10-05T12:58:41.336Z,1.50
2017-10-05T13:01:09.026Z,1.27
2017-10-05T13:03:36.681Z,1.10
2017-10-05T13:06:04.360Z,0.80
2017-10-05T13:08:32.064Z,1.57
2017-10-05T13:10:59.714Z,0.87
2017-10-05T13:13:27.470Z,1.77
2017-10-05T13:15:55.375Z,1.27
2017-10-05T13:18:23.139Z,2.23
2017-10-05T13:20:51.183Z,1.67
2017-10-05T13:23:18.914Z,1.47
2017-10-05T13:25:46.660Z,1.50
2017-10-05T13:28:14.327Z,1.40
2017-10-05T13:30:42.172Z,1.63
2017-10-05T13:33:09.942Z,2.83
2017-10-05T13:35:38.019Z,1.37
2017-10-05T13:38:05.940Z,1.10
2017-10-05T13:40:34.173Z,1.23
2017-10-05T13:43:01.823Z,2.73
2017-10-05T13:45:29.531Z,1.17
2017-10-05T13:47:57.204Z,1.00
2017-10-05T13:50:24.856Z,0.87
2017-10-05T13:52:52.656Z,2.40
2017-10-05T13:55:20.346Z,1.27
2017-10-05T13:57:47.995Z,1.00
2017-10-05T14:00:15.719Z,1.10
2017-10-05T14:02:43.380Z,1.30
2017-10-05T14:05:11.131Z,1.20
2017-10-05T14:07:38.850Z,1.23
2017-10-05T14:10:06.502Z,0.80
2017-10-05T14:12:34.163Z,1.40
2017-10-05T14:15:01.913Z,1.20
2017-10-05T14:17:29.550Z,1.17
2017-10-05T14:19:57.200Z,1.00
2017-10-05T14:22:24.923Z,1.40
2017-10-05T14:24:52.609Z,1.47
2017-10-05T14:27:20.345Z,1.23
2017-10-05T14:29:48.061Z,1.30
2017-10-05T14:32:15.719Z,1.10
2017-10-05T14:34:43.383Z,1.10
2017-10-05T14:37:11.099Z,1.10
2017-10-05T14:39:38.744Z,1.30
2017-10-05T14:42:06.418Z,1.23
2017-10-05T14:44:34.119Z,1.07
2017-10-05T14:47:01.764Z,1.53
2017-10-05T14:49:29.425Z,1.40
2017-10-05T14:51:57.136Z,1.30
2017-10-05T14:54:25.174Z,1.80
2017-10-05T14:56:52.814Z,1.80
2017-10-05T14:59:20.515Z,1.40
2017-10-05T15:01:49.305Z,1.23
2017-10-05T15:04:16.995Z,1.30
2017-10-05T15:06:45.092Z,1.57
2017-10-05T15:09:12.735Z,1.33
2017-10-05T15:11:40.431Z,1.20
2017-10-05T15:14:08.532Z,1.60
2017-10-05T15:16:36.208Z,2.03
2017-10-05T15:19:03.961Z,1.57
2017-10-05T15:21:31.663Z,1.90
2017-10-05T15:23:59.340Z,1.60
2017-10-05T15:26:26.996Z,2.10
2017-10-05T15:28:54.783Z,1.43
2017-10-05T15:31:22.909Z,1.40
2017-10-05T15:33:50.550Z,1.77
2017-10-05T15:36:18.295Z,1.23
2017-10-05T15:38:45.943Z,1.10
2017-10-05T15:41:13.596Z,1.20
2017-10-05T15:43:41.316Z,1.17
2017-10-05T15:46:08.977Z,1.97
2017-10-05T15:48:36.638Z,1.17
2017-10-05T15:51:04.349Z,1.30
2017-10-05T15:53:32.003Z,1.33
2017-10-05T15:55:59.699Z,1.67
2017-10-05T15:58:28.136Z,1.57
2017-10-05T16:00:55.793Z,0.90
2017-10-05T16:03:23.518Z,1.27
2017-10-05T16:05:51.215Z,2.40
2017-10-05T16:08:18.910Z,1.30
2017-10-05T16:10:46.663Z,2.00
2017-10-05T16:13:14.351Z,1.40
2017-10-05T16:15:42.004Z,1.30
2017-10-05T16:18:09.651Z,1.37
2017-10-05T16:20:37.356Z,1.30
2017-10-05T16:23:05.003Z,1.30
2017-10-05T16:25:32.644Z,0.87
2017-10-05T16:28:00.435Z,1.17
2017-10-05T16:30:28.080Z,1.00
2017-10-05T16:32:55.728Z,1.00
2017-10-05T16:35:23.523Z,0.90
2017-10-05T16:37:51.162Z,0.90
2017-10-05T16:40:18.834Z,1.20
2017-10-05T16:42:46.552Z,1.17
2017-10-05T16:45:14.301Z,1.30
2017-10-05T16:47:41.950Z,1.17
2017-10-05T16:50:09.692Z,1.30
2017-10-05T16:52:37.440Z,1.20
2017-10-05T16:55:05.092Z,1.10
2017-10-05T16:57:32.934Z,1.10
2017-10-05T17:00:00.589Z,1.50
2017-10-05T17:02:28.240Z,1.37
2017-10-05T17:04:56.075Z,1.20
2017-10-05T17:07:23.731Z,1.57
2017-10-05T17:09:51.468Z,1.27
2017-10-05T17:12:19.162Z,1.63
2017-10-05T17:14:46.811Z,1.23
2017-10-05T17:17:14.508Z,1.00
2017-10-05T17:19:42.346Z,1.30
2017-10-05T17:22:10.101Z,1.10
2017-10-05T17:24:37.848Z,1.00
2017-10-05T17:27:05.555Z,1.20
2017-10-05T17:29:33.240Z,1.50
2017-10-05T17:32:00.891Z,1.07
2017-10-05T17:34:28.602Z,1.13
2017-10-05T17:36:56.260Z,1.20
2017-10-05T17:39:23.924Z,0.97
2017-10-05T17:41:51.635Z,1.40
2017-10-05T17:44:19.294Z,1.13
2017-10-05T17:46:46.961Z,1.30
2017-10-05T17:49:14.664Z,1.23
2017-10-05T17:51:42.353Z,1.10
2017-10-05T17:54:10.012Z,1.07
2017-10-05T17:56:37.714Z,1.00
2017-10-05T17:59:05.367Z,1.10
2017-10-05T18:01:33.023Z,0.80
2017-10-05T18:04:00.727Z,0.93
2017-10-05T18:06:28.380Z,0.70
2017-10-05T18:08:56.071Z,0.93
2017-10-05T18:11:24.027Z,1.00
2017-10-05T18:13:51.688Z,0.80
2017-10-05T18:16:19.932Z,0.80
2017-10-05T18:18:47.755Z,1.00
2017-10-05T18:21:15.399Z,1.20
2017-10-05T18:23:43.055Z,1.40
2017-10-05T18:26:10.765Z,1.17
2017-10-05T18:28:39.387Z,1.10
2017-10-05T18:31:07.130Z,1.17
2017-10-05T18:33:34.849Z,1.57
2017-10-05T18:36:03.399Z,1.60
2017-10-05T18:38:32.025Z,1.03
2017-10-05T18:41:00.259Z,1.10
2017-10-05T18:43:27.912Z,1.47
2017-10-05T18:45:55.665Z,1.30
2017-10-05T18:48:23.395Z,1.10
2017-10-05T18:50:51.083Z,1.87
2017-10-05T18:53:19.128Z,1.00
2017-10-05T18:55:47.881Z,1.80
2017-10-05T18:58:16.397Z,2.97
2017-10-05T19:00:44.043Z,1.07
2017-10-05T19:03:12.694Z,1.10
2017-10-05T19:05:40.749Z,1.43
2017-10-05T19:08:08.870Z,1.80
2017-10-05T19:10:36.572Z,1.07
2017-10-05T19:13:04.226Z,1.40
2017-10-05T19:15:32.008Z,1.10
2017-10-05T19:17:59.757Z,1.17
2017-10-05T19:20:27.503Z,1.20
2017-10-05T19:22:55.254Z,1.20
2017-10-05T19:25:23.000Z,1.10
2017-10-05T19:27:50.669Z,1.45
2017-10-05T19:30:18.744Z,1.30
2017-10-05T19:32:46.652Z,2.00
2017-10-05T19:35:14.322Z,1.40
2017-10-05T19:37:42.563Z,1.30
2017-10-05T19:40:10.302Z,1.25
2017-10-05T19:42:38.050Z,1.40
2017-10-05T19:45:05.797Z,1.58
2017-10-05T19:47:33.546Z,1.40
2017-10-05T19:50:01.212Z,1.40
2017-10-05T19:52:29.272Z,1.27
2017-10-05T19:54:57.415Z,1.47
2017-10-05T19:57:25.355Z,1.30
2017-10-05T19:59:53.307Z,1.00
2017-10-05T20:02:21.159Z,1.67
2017-10-05T20:04:48.812Z,1.12
2017-10-05T20:07:16.469Z,1.20
2017-10-05T20:09:44.594Z,1.50
2017-10-05T20:12:12.316Z,1.40
2017-10-05T20:14:50.135Z,1.62
2017-10-05T20:20:31.187Z,1.60
2017-10-05T20:26:10.099Z,1.65
2017-10-05T20:31:43.975Z,1.60
2017-10-05T20:34:11.735Z,1.55
2017-10-05T20:36:39.481Z,1.60
2017-10-05T20:39:07.192Z,1.50
2017-10-05T20:41:34.839Z,1.50
2017-10-05T20:44:02.516Z,1.40
2017-10-05T20:46:30.244Z,1.35
2017-10-05T20:48:57.909Z,1.60
2017-10-05T20:51:25.660Z,1.35
2017-10-05T20:53:53.481Z,1.98
2017-10-05T20:56:21.154Z,1.40
2017-10-05T20:58:48.809Z,1.90
2017-10-05T21:01:16.520Z,1.77
2017-10-05T21:03:44.180Z,2.40
2017-10-05T21:06:11.836Z,1.80
2017-10-05T21:08:40.368Z,1.47
2017-10-05T21:11:08.025Z,2.00
2017-10-05T21:13:35.673Z,1.93
2017-10-05T21:16:03.392Z,1.70
2017-10-05T21:18:31.083Z,2.00
2017-10-05T21:20:58.830Z,2.57
2017-10-05T21:23:26.637Z,1.97
2017-10-05T21:25:54.331Z,2.07
2017-10-05T21:28:21.981Z,1.57
2017-10-05T21:30:49.683Z,1.93
2017-10-05T21:33:17.354Z,1.90
2017-10-05T21:35:44.995Z,2.10
2017-10-05T21:38:12.756Z,1.70
2017-10-05T21:40:40.436Z,1.77
2017-10-05T21:43:08.559Z,2.40
2017-10-05T21:45:36.289Z,2.20
2017-10-05T21:48:03.948Z,2.40
2017-10-05T21:50:31.696Z,2.00
2017-10-05T21:52:59.544Z,2.90
2017-10-05T21:55:28.492Z,2.17
2017-10-05T21:57:56.148Z,2.87
2017-10-05T22:00:23.928Z,2.30
2017-10-05T22:02:51.663Z,2.37
2017-10-05T22:05:19.316Z,2.80
2017-10-05T22:07:47.158Z,2.47
2017-10-05T22:10:14.812Z,2.40
2017-10-05T22:12:42.471Z,2.53
2017-10-05T22:15:10.800Z,2.50
2017-10-05T22:17:38.557Z,2.43
2017-10-05T22:20:06.220Z,2.60
2017-10-05T22:22:34.044Z,2.77
2017-10-05T22:25:01.798Z,2.50
2017-10-05T22:27:29.470Z,2.80
2017-10-05T22:29:57.292Z,2.50
2017-10-05T22:32:24.940Z,2.70
2017-10-05T22:34:52.686Z,2.63
2017-10-05T22:37:20.529Z,2.58
2017-10-05T22:39:48.191Z,2.40
2017-10-05T22:42:15.855Z,2.85
2017-10-05T22:44:43.982Z,2.57
2017-10-05T22:47:11.733Z,2.83
2017-10-05T22:49:39.806Z,2.80
2017-10-05T22:52:07.912Z,2.72
2017-10-05T22:54:35.572Z,3.03
2017-10-05T22:57:03.236Z,3.10
2017-10-05T22:59:31.181Z,3.87
2017-10-05T23:01:58.835Z,3.57
2017-10-05T23:04:26.488Z,2.60
2017-10-05T23:06:54.672Z,3.00
2017-10-05T23:09:22.378Z,2.90
2017-10-05T23:11:50.032Z,4.23
2017-10-05T23:14:17.748Z,2.93
2017-10-05T23:16:45.413Z,2.80
2017-10-05T23:19:13.161Z,2.47
2017-10-05T23:21:40.863Z,3.10
2017-10-05T23:24:08.512Z,3.40
2017-10-05T23:26:36.163Z,3.47
2017-10-05T23:29:03.946Z,2.87
2017-10-05T23:31:31.604Z,3.05
2017-10-05T23:33:59.255Z,2.80
2017-10-05T23:36:27.371Z,2.75
2017-10-05T23:38:55.024Z,2.50
2017-10-05T23:41:22.681Z,2.87
2017-10-05T23:43:50.430Z,2.97
2017-10-05T23:46:18.178Z,2.70
2017-10-05T23:48:45.836Z,2.47
2017-10-05T23:51:13.535Z,3.10
2017-10-05T23:53:41.196Z,2.53
2017-10-05T23:56:08.847Z,2.67
2017-10-05T23:58:36.638Z,2.63
